sensor_id;sensor_type;location;lat;lon;timestamp;P1;durP1;ratioP1;P2;durP2;ratioP2
37115;SDS011;23025;41.996;23.098;2023-04-15T00:01:57;2.38;;;2.28;;
37115;SDS011;23025;41.996;23.098;2023-04-15T00:04:23;3.25;;;3.15;;
37115;SDS011;23025;41.996;23.098;2023-04-15T00:06:50;9.15;;;8.82;;
37115;SDS011;23025;41.996;23.098;2023-04-15T00:09:19;2.60;;;2.50;;
37115;SDS011;23025;41.996;23.098;2023-04-15T00:11:46;3.53;;;3.42;;
37115;SDS011;23025;41.996;23.098;2023-04-15T00:14:13;3.25;;;3.08;;
37115;SDS011;23025;41.996;23.098;2023-04-15T00:16:39;3.85;;;3.72;;
37115;SDS011;23025;41.996;23.098;2023-04-15T00:19:06;2.65;;;2.55;;
37115;SDS011;23025;41.996;23.098;2023-04-15T00:21:32;2.80;;;2.70;;
37115;SDS011;23025;41.996;23.098;2023-04-15T00:23:59;4.75;;;4.55;;
37115;SDS011;23025;41.996;23.098;2023-04-15T00:26:27;2.53;;;2.40;;
37115;SDS011;23025;41.996;23.098;2023-04-15T00:28:53;4.80;;;4.60;;
37115;SDS011;23025;41.996;23.098;2023-04-15T00:31:20;3.70;;;3.58;;
37115;SDS011;23025;41.996;23.098;2023-04-15T00:33:47;4.13;;;3.92;;
37115;SDS011;23025;41.996;23.098;2023-04-15T00:36:13;3.05;;;2.95;;
37115;SDS011;23025;41.996;23.098;2023-04-15T00:38:40;3.38;;;3.28;;
37115;SDS011;23025;41.996;23.098;2023-04-15T00:41:07;3.00;;;2.90;;
37115;SDS011;23025;41.996;23.098;2023-04-15T00:43:35;3.38;;;3.28;;
37115;SDS011;23025;41.996;23.098;2023-04-15T00:46:03;2.33;;;2.13;;
37115;SDS011;23025;41.996;23.098;2023-04-15T00:48:30;3.47;;;3.38;;
37115;SDS011;23025;41.996;23.098;2023-04-15T00:50:57;3.42;;;3.30;;
37115;SDS011;23025;41.996;23.098;2023-04-15T00:53:23;5.43;;;5.20;;
37115;SDS011;23025;41.996;23.098;2023-04-15T00:55:50;5.30;;;5.10;;
37115;SDS011;23025;41.996;23.098;2023-04-15T00:58:16;4.70;;;4.50;;
37115;SDS011;23025;41.996;23.098;2023-04-15T01:00:45;3.78;;;3.60;;
37115;SDS011;23025;41.996;23.098;2023-04-15T01:03:11;4.18;;;3.97;;
37115;SDS011;23025;41.996;23.098;2023-04-15T01:05:39;4.25;;;4.05;;
37115;SDS011;23025;41.996;23.098;2023-04-15T01:08:06;2.60;;;2.50;;
37115;SDS011;23025;41.996;23.098;2023-04-15T01:10:33;3.08;;;2.97;;
37115;SDS011;23025;41.996;23.098;2023-04-15T01:13:00;4.13;;;3.97;;
37115;SDS011;23025;41.996;23.098;2023-04-15T01:15:28;8.55;;;8.25;;
37115;SDS011;23025;41.996;23.098;2023-04-15T01:17:56;4.05;;;3.92;;
37115;SDS011;23025;41.996;23.098;2023-04-15T01:20:22;3.85;;;3.72;;
37115;SDS011;23025;41.996;23.098;2023-04-15T01:22:50;3.72;;;3.63;;
37115;SDS011;23025;41.996;23.098;2023-04-15T01:25:17;3.45;;;3.35;;
37115;SDS011;23025;41.996;23.098;2023-04-15T01:27:45;2.17;;;2.08;;
37115;SDS011;23025;41.996;23.098;2023-04-15T01:30:12;2.53;;;2.42;;
37115;SDS011;23025;41.996;23.098;2023-04-15T01:32:38;2.38;;;2.28;;
37115;SDS011;23025;41.996;23.098;2023-04-15T01:35:05;5.88;;;5.68;;
37115;SDS011;23025;41.996;23.098;2023-04-15T01:37:32;2.95;;;2.85;;
37115;SDS011;23025;41.996;23.098;2023-04-15T01:39:59;2.38;;;2.28;;
37115;SDS011;23025;41.996;23.098;2023-04-15T01:42:26;2.58;;;2.47;;
37115;SDS011;23025;41.996;23.098;2023-04-15T01:44:54;3.42;;;3.30;;
37115;SDS011;23025;41.996;23.098;2023-04-15T01:47:21;4.63;;;4.43;;
37115;SDS011;23025;41.996;23.098;2023-04-15T01:49:47;2.83;;;2.72;;
37115;SDS011;23025;41.996;23.098;2023-04-15T01:52:14;3.30;;;3.20;;
37115;SDS011;23025;41.996;23.098;2023-04-15T01:54:40;4.63;;;4.43;;
37115;SDS011;23025;41.996;23.098;2023-04-15T01:57:07;2.13;;;2.03;;
37115;SDS011;23025;41.996;23.098;2023-04-15T01:59:34;2.92;;;2.83;;
37115;SDS011;23025;41.996;23.098;2023-04-15T02:02:02;2.20;;;2.10;;
37115;SDS011;23025;41.996;23.098;2023-04-15T02:04:29;4.05;;;3.92;;
37115;SDS011;23025;41.996;23.098;2023-04-15T02:06:56;3.30;;;3.17;;
37115;SDS011;23025;41.996;23.098;2023-04-15T02:09:22;2.25;;;2.15;;
37115;SDS011;23025;41.996;23.098;2023-04-15T02:11:49;3.70;;;3.50;;
37115;SDS011;23025;41.996;23.098;2023-04-15T02:14:16;3.30;;;3.15;;
37115;SDS011;23025;41.996;23.098;2023-04-15T02:16:42;4.88;;;4.68;;
37115;SDS011;23025;41.996;23.098;2023-04-15T02:19:10;2.75;;;2.65;;
37115;SDS011;23025;41.996;23.098;2023-04-15T02:21:38;4.43;;;4.22;;
37115;SDS011;23025;41.996;23.098;2023-04-15T02:24:05;2.25;;;2.15;;
37115;SDS011;23025;41.996;23.098;2023-04-15T02:26:31;3.00;;;2.90;;
37115;SDS011;23025;41.996;23.098;2023-04-15T02:28:58;3.42;;;3.30;;
37115;SDS011;23025;41.996;23.098;2023-04-15T02:31:24;3.70;;;3.58;;
37115;SDS011;23025;41.996;23.098;2023-04-15T02:33:51;3.30;;;3.20;;
37115;SDS011;23025;41.996;23.098;2023-04-15T02:36:19;4.82;;;4.63;;
37115;SDS011;23025;41.996;23.098;2023-04-15T02:38:46;7.25;;;6.95;;
37115;SDS011;23025;41.996;23.098;2023-04-15T02:41:12;5.53;;;5.32;;
37115;SDS011;23025;41.996;23.098;2023-04-15T02:43:39;5.22;;;5.03;;
37115;SDS011;23025;41.996;23.098;2023-04-15T02:46:05;3.53;;;3.42;;
37115;SDS011;23025;41.996;23.098;2023-04-15T02:48:32;4.30;;;3.75;;
37115;SDS011;23025;41.996;23.098;2023-04-15T02:51:12;2.78;;;2.67;;
37115;SDS011;23025;41.996;23.098;2023-04-15T02:53:39;3.05;;;2.95;;
37115;SDS011;23025;41.996;23.098;2023-04-15T02:56:06;2.40;;;2.30;;
37115;SDS011;23025;41.996;23.098;2023-04-15T02:58:33;3.40;;;3.30;;
37115;SDS011;23025;41.996;23.098;2023-04-15T03:01:00;3.13;;;3.03;;
37115;SDS011;23025;41.996;23.098;2023-04-15T03:03:27;2.30;;;2.20;;
37115;SDS011;23025;41.996;23.098;2023-04-15T03:05:53;2.60;;;2.50;;
37115;SDS011;23025;41.996;23.098;2023-04-15T03:08:20;2.38;;;2.28;;
37115;SDS011;23025;41.996;23.098;2023-04-15T03:10:48;4.35;;;4.18;;
37115;SDS011;23025;41.996;23.098;2023-04-15T03:13:16;2.17;;;2.08;;
37115;SDS011;23025;41.996;23.098;2023-04-15T03:15:43;3.80;;;3.65;;
37115;SDS011;23025;41.996;23.098;2023-04-15T03:18:10;4.93;;;4.72;;
37115;SDS011;23025;41.996;23.098;2023-04-15T03:20:37;3.08;;;2.97;;
37115;SDS011;23025;41.996;23.098;2023-04-15T03:23:03;5.28;;;5.07;;
37115;SDS011;23025;41.996;23.098;2023-04-15T03:25:30;2.25;;;2.15;;
37115;SDS011;23025;41.996;23.098;2023-04-15T03:27:58;3.05;;;2.95;;
37115;SDS011;23025;41.996;23.098;2023-04-15T03:30:25;3.30;;;3.10;;
37115;SDS011;23025;41.996;23.098;2023-04-15T03:32:51;3.40;;;3.30;;
37115;SDS011;23025;41.996;23.098;2023-04-15T03:35:18;3.50;;;3.40;;
37115;SDS011;23025;41.996;23.098;2023-04-15T03:37:44;2.17;;;2.08;;
37115;SDS011;23025;41.996;23.098;2023-04-15T03:40:13;4.45;;;4.25;;
37115;SDS011;23025;41.996;23.098;2023-04-15T03:42:40;3.40;;;3.30;;
37115;SDS011;23025;41.996;23.098;2023-04-15T03:45:08;2.80;;;2.70;;
37115;SDS011;23025;41.996;23.098;2023-04-15T03:47:35;13.10;;;12.60;;
37115;SDS011;23025;41.996;23.098;2023-04-15T03:50:01;5.68;;;5.47;;
37115;SDS011;23025;41.996;23.098;2023-04-15T03:52:28;3.38;;;3.28;;
37115;SDS011;23025;41.996;23.098;2023-04-15T03:54:55;2.20;;;2.10;;
37115;SDS011;23025;41.996;23.098;2023-04-15T03:57:21;1.75;;;1.67;;
37115;SDS011;23025;41.996;23.098;2023-04-15T03:59:48;2.85;;;2.75;;
37115;SDS011;23025;41.996;23.098;2023-04-15T04:02:16;3.25;;;3.15;;
37115;SDS011;23025;41.996;23.098;2023-04-15T04:04:42;2.75;;;2.65;;
37115;SDS011;23025;41.996;23.098;2023-04-15T04:07:13;2.75;;;2.65;;
37115;SDS011;23025;41.996;23.098;2023-04-15T04:09:40;1.63;;;1.58;;
37115;SDS011;23025;41.996;23.098;2023-04-15T04:12:06;2.60;;;2.50;;
37115;SDS011;23025;41.996;23.098;2023-04-15T04:14:33;3.40;;;3.30;;
37115;SDS011;23025;41.996;23.098;2023-04-15T04:16:59;2.83;;;2.72;;
37115;SDS011;23025;41.996;23.098;2023-04-15T04:19:27;5.10;;;4.90;;
37115;SDS011;23025;41.996;23.098;2023-04-15T04:21:54;2.13;;;2.03;;
37115;SDS011;23025;41.996;23.098;2023-04-15T04:24:21;3.05;;;2.95;;
37115;SDS011;23025;41.996;23.098;2023-04-15T04:26:47;1.23;;;1.23;;
37115;SDS011;23025;41.996;23.098;2023-04-15T04:29:14;2.03;;;1.92;;
37115;SDS011;23025;41.996;23.098;2023-04-15T04:31:40;1.63;;;1.55;;
37115;SDS011;23025;41.996;23.098;2023-04-15T04:34:07;4.20;;;4.07;;
37115;SDS011;23025;41.996;23.098;2023-04-15T04:36:35;2.63;;;2.53;;
37115;SDS011;23025;41.996;23.098;2023-04-15T04:39:01;3.78;;;3.58;;
37115;SDS011;23025;41.996;23.098;2023-04-15T04:41:28;1.42;;;1.42;;
37115;SDS011;23025;41.996;23.098;2023-04-15T04:43:55;2.28;;;2.17;;
37115;SDS011;23025;41.996;23.098;2023-04-15T04:46:21;1.90;;;1.80;;
37115;SDS011;23025;41.996;23.098;2023-04-15T04:48:48;4.20;;;4.05;;
37115;SDS011;23025;41.996;23.098;2023-04-15T04:51:14;4.22;;;4.03;;
37115;SDS011;23025;41.996;23.098;2023-04-15T04:53:42;5.13;;;4.93;;
37115;SDS011;23025;41.996;23.098;2023-04-15T04:56:09;2.20;;;2.10;;
37115;SDS011;23025;41.996;23.098;2023-04-15T04:58:36;2.35;;;2.25;;
37115;SDS011;23025;41.996;23.098;2023-04-15T05:01:02;2.85;;;2.75;;
37115;SDS011;23025;41.996;23.098;2023-04-15T05:03:29;7.70;;;7.40;;
37115;SDS011;23025;41.996;23.098;2023-04-15T05:05:55;4.22;;;4.05;;
37115;SDS011;23025;41.996;23.098;2023-04-15T05:08:22;3.10;;;3.00;;
37115;SDS011;23025;41.996;23.098;2023-04-15T05:10:50;4.25;;;4.07;;
37115;SDS011;23025;41.996;23.098;2023-04-15T05:13:16;3.97;;;3.85;;
37115;SDS011;23025;41.996;23.098;2023-04-15T05:15:43;5.22;;;4.55;;
37115;SDS011;23025;41.996;23.098;2023-04-15T05:18:10;3.03;;;2.92;;
37115;SDS011;23025;41.996;23.098;2023-04-15T05:20:36;3.72;;;3.60;;
37115;SDS011;23025;41.996;23.098;2023-04-15T05:23:03;3.35;;;3.25;;
37115;SDS011;23025;41.996;23.098;2023-04-15T05:25:30;3.75;;;3.65;;
37115;SDS011;23025;41.996;23.098;2023-04-15T05:27:58;3.03;;;2.92;;
37115;SDS011;23025;41.996;23.098;2023-04-15T05:30:25;3.33;;;3.22;;
37115;SDS011;23025;41.996;23.098;2023-04-15T05:32:51;4.35;;;4.15;;
37115;SDS011;23025;41.996;23.098;2023-04-15T05:35:18;3.75;;;3.55;;
37115;SDS011;23025;41.996;23.098;2023-04-15T05:37:44;3.38;;;3.17;;
37115;SDS011;23025;41.996;23.098;2023-04-15T05:40:11;2.58;;;2.47;;
37115;SDS011;23025;41.996;23.098;2023-04-15T05:42:38;3.40;;;3.15;;
37115;SDS011;23025;41.996;23.098;2023-04-15T05:45:07;3.95;;;3.75;;
37115;SDS011;23025;41.996;23.098;2023-04-15T05:47:34;4.85;;;4.65;;
37115;SDS011;23025;41.996;23.098;2023-04-15T05:50:01;4.57;;;4.38;;
37115;SDS011;23025;41.996;23.098;2023-04-15T05:52:28;5.45;;;5.25;;
37115;SDS011;23025;41.996;23.098;2023-04-15T05:54:54;4.13;;;3.92;;
37115;SDS011;23025;41.996;23.098;2023-04-15T05:57:21;7.85;;;7.30;;
37115;SDS011;23025;41.996;23.098;2023-04-15T05:59:48;4.18;;;3.97;;
37115;SDS011;23025;41.996;23.098;2023-04-15T06:02:17;4.55;;;4.35;;
37115;SDS011;23025;41.996;23.098;2023-04-15T06:04:44;5.35;;;5.15;;
37115;SDS011;23025;41.996;23.098;2023-04-15T06:07:10;6.45;;;6.20;;
37115;SDS011;23025;41.996;23.098;2023-04-15T06:09:37;5.85;;;5.65;;
37115;SDS011;23025;41.996;23.098;2023-04-15T06:12:04;15.32;;;14.73;;
37115;SDS011;23025;41.996;23.098;2023-04-15T06:14:36;7.72;;;7.43;;
37115;SDS011;23025;41.996;23.098;2023-04-15T06:17:02;7.05;;;6.78;;
37115;SDS011;23025;41.996;23.098;2023-04-15T06:19:30;6.40;;;6.15;;
37115;SDS011;23025;41.996;23.098;2023-04-15T06:21:57;6.32;;;6.03;;
37115;SDS011;23025;41.996;23.098;2023-04-15T06:24:23;6.13;;;5.82;;
37115;SDS011;23025;41.996;23.098;2023-04-15T06:26:50;5.03;;;4.82;;
37115;SDS011;23025;41.996;23.098;2023-04-15T06:29:16;5.78;;;5.57;;
37115;SDS011;23025;41.996;23.098;2023-04-15T06:31:43;7.07;;;6.78;;
37115;SDS011;23025;41.996;23.098;2023-04-15T06:34:10;5.82;;;5.60;;
37115;SDS011;23025;41.996;23.098;2023-04-15T06:36:38;6.40;;;6.10;;
37115;SDS011;23025;41.996;23.098;2023-04-15T06:39:04;5.40;;;5.10;;
37115;SDS011;23025;41.996;23.098;2023-04-15T06:41:31;6.70;;;6.40;;
37115;SDS011;23025;41.996;23.098;2023-04-15T06:43:58;7.28;;;7.00;;
37115;SDS011;23025;41.996;23.098;2023-04-15T06:46:25;8.27;;;7.95;;
37115;SDS011;23025;41.996;23.098;2023-04-15T06:48:51;8.32;;;7.97;;
37115;SDS011;23025;41.996;23.098;2023-04-15T06:51:18;9.65;;;9.25;;
37115;SDS011;23025;41.996;23.098;2023-04-15T06:53:46;8.93;;;8.60;;
37115;SDS011;23025;41.996;23.098;2023-04-15T06:56:12;8.82;;;8.50;;
37115;SDS011;23025;41.996;23.098;2023-04-15T06:58:39;8.75;;;8.43;;
37115;SDS011;23025;41.996;23.098;2023-04-15T07:01:06;9.30;;;8.98;;
37115;SDS011;23025;41.996;23.098;2023-04-15T07:03:32;13.13;;;12.63;;
37115;SDS011;23025;41.996;23.098;2023-04-15T07:05:59;8.82;;;8.50;;
37115;SDS011;23025;41.996;23.098;2023-04-15T07:08:26;9.27;;;8.95;;
37115;SDS011;23025;41.996;23.098;2023-04-15T07:10:54;11.68;;;11.25;;
37115;SDS011;23025;41.996;23.098;2023-04-15T07:13:21;9.30;;;8.95;;
37115;SDS011;23025;41.996;23.098;2023-04-15T07:15:47;12.68;;;12.18;;
37115;SDS011;23025;41.996;23.098;2023-04-15T07:18:14;11.35;;;10.93;;
37115;SDS011;23025;41.996;23.098;2023-04-15T07:20:41;11.05;;;10.63;;
37115;SDS011;23025;41.996;23.098;2023-04-15T07:23:08;13.07;;;12.60;;
37115;SDS011;23025;41.996;23.098;2023-04-15T07:25:34;18.70;;;18.02;;
37115;SDS011;23025;41.996;23.098;2023-04-15T07:28:02;14.88;;;14.35;;
37115;SDS011;23025;41.996;23.098;2023-04-15T07:30:29;15.07;;;14.55;;
37115;SDS011;23025;41.996;23.098;2023-04-15T07:32:56;14.32;;;13.80;;
37115;SDS011;23025;41.996;23.098;2023-04-15T07:35:23;15.60;;;15.05;;
37115;SDS011;23025;41.996;23.098;2023-04-15T07:37:50;15.38;;;14.82;;
37115;SDS011;23025;41.996;23.098;2023-04-15T07:40:17;12.40;;;11.93;;
37115;SDS011;23025;41.996;23.098;2023-04-15T07:42:44;14.07;;;13.55;;
37115;SDS011;23025;41.996;23.098;2023-04-15T07:45:13;14.10;;;13.57;;
37115;SDS011;23025;41.996;23.098;2023-04-15T07:47:41;15.32;;;14.70;;
37115;SDS011;23025;41.996;23.098;2023-04-15T07:50:08;16.40;;;15.77;;
37115;SDS011;23025;41.996;23.098;2023-04-15T07:52:35;21.48;;;20.65;;
37115;SDS011;23025;41.996;23.098;2023-04-15T07:55:03;22.17;;;21.38;;
37115;SDS011;23025;41.996;23.098;2023-04-15T07:57:31;19.55;;;18.83;;
37115;SDS011;23025;41.996;23.098;2023-04-15T07:59:57;22.83;;;22.00;;
37115;SDS011;23025;41.996;23.098;2023-04-15T08:02:25;20.08;;;19.35;;
37115;SDS011;23025;41.996;23.098;2023-04-15T08:04:52;16.63;;;16.02;;
37115;SDS011;23025;41.996;23.098;2023-04-15T08:07:18;29.92;;;28.88;;
37115;SDS011;23025;41.996;23.098;2023-04-15T08:09:45;17.73;;;17.10;;
37115;SDS011;23025;41.996;23.098;2023-04-15T08:12:12;25.77;;;24.85;;
37115;SDS011;23025;41.996;23.098;2023-04-15T08:14:39;19.85;;;19.13;;
37115;SDS011;23025;41.996;23.098;2023-04-15T08:17:05;23.40;;;22.58;;
37115;SDS011;23025;41.996;23.098;2023-04-15T08:19:33;16.23;;;15.60;;
37115;SDS011;23025;41.996;23.098;2023-04-15T08:22:00;41.83;;;40.38;;
37115;SDS011;23025;41.996;23.098;2023-04-15T08:24:27;27.23;;;26.17;;
37115;SDS011;23025;41.996;23.098;2023-04-15T08:26:53;20.02;;;19.30;;
37115;SDS011;23025;41.996;23.098;2023-04-15T08:29:20;25.40;;;24.50;;
37115;SDS011;23025;41.996;23.098;2023-04-15T08:31:47;24.70;;;23.83;;
37115;SDS011;23025;41.996;23.098;2023-04-15T08:34:13;18.33;;;17.70;;
37115;SDS011;23025;41.996;23.098;2023-04-15T08:36:41;13.93;;;13.40;;
37115;SDS011;23025;41.996;23.098;2023-04-15T08:39:08;28.33;;;27.33;;
37115;SDS011;23025;41.996;23.098;2023-04-15T08:41:37;26.88;;;25.95;;
37115;SDS011;23025;41.996;23.098;2023-04-15T08:44:05;29.25;;;28.23;;
37115;SDS011;23025;41.996;23.098;2023-04-15T08:46:32;24.67;;;23.80;;
37115;SDS011;23025;41.996;23.098;2023-04-15T08:48:59;28.50;;;27.48;;
37115;SDS011;23025;41.996;23.098;2023-04-15T08:51:28;35.55;;;34.30;;
37115;SDS011;23025;41.996;23.098;2023-04-15T08:53:57;29.42;;;28.40;;
37115;SDS011;23025;41.996;23.098;2023-04-15T08:56:24;22.20;;;21.38;;
37115;SDS011;23025;41.996;23.098;2023-04-15T08:58:51;22.30;;;21.48;;
37115;SDS011;23025;41.996;23.098;2023-04-15T09:01:18;25.77;;;24.90;;
37115;SDS011;23025;41.996;23.098;2023-04-15T09:03:45;25.83;;;24.90;;
37115;SDS011;23025;41.996;23.098;2023-04-15T09:06:13;23.85;;;23.00;;
37115;SDS011;23025;41.996;23.098;2023-04-15T09:08:41;22.08;;;21.25;;
37115;SDS011;23025;41.996;23.098;2023-04-15T09:11:09;26.75;;;25.83;;
37115;SDS011;23025;41.996;23.098;2023-04-15T09:13:36;29.85;;;28.77;;
37115;SDS011;23025;41.996;23.098;2023-04-15T09:16:03;32.78;;;31.63;;
37115;SDS011;23025;41.996;23.098;2023-04-15T09:18:31;26.83;;;25.90;;
37115;SDS011;23025;41.996;23.098;2023-04-15T09:21:02;33.03;;;31.88;;
37115;SDS011;23025;41.996;23.098;2023-04-15T09:23:30;31.00;;;29.48;;
37115;SDS011;23025;41.996;23.098;2023-04-15T09:25:57;35.55;;;34.33;;
37115;SDS011;23025;41.996;23.098;2023-04-15T09:28:25;34.13;;;32.90;;
37115;SDS011;23025;41.996;23.098;2023-04-15T09:30:54;33.50;;;32.28;;
37115;SDS011;23025;41.996;23.098;2023-04-15T09:33:21;38.05;;;36.70;;
37115;SDS011;23025;41.996;23.098;2023-04-15T09:35:55;28.83;;;27.80;;
37115;SDS011;23025;41.996;23.098;2023-04-15T09:38:21;29.15;;;28.13;;
37115;SDS011;23025;41.996;23.098;2023-04-15T09:40:48;25.77;;;24.85;;
37115;SDS011;23025;41.996;23.098;2023-04-15T09:43:15;32.35;;;31.23;;
37115;SDS011;23025;41.996;23.098;2023-04-15T09:45:47;34.47;;;33.28;;
37115;SDS011;23025;41.996;23.098;2023-04-15T09:48:14;35.85;;;34.60;;
37115;SDS011;23025;41.996;23.098;2023-04-15T09:50:41;41.40;;;39.95;;
37115;SDS011;23025;41.996;23.098;2023-04-15T09:53:08;35.80;;;34.55;;
37115;SDS011;23025;41.996;23.098;2023-04-15T09:55:35;37.85;;;36.53;;
37115;SDS011;23025;41.996;23.098;2023-04-15T09:58:01;32.72;;;31.58;;
37115;SDS011;23025;41.996;23.098;2023-04-15T10:00:33;24.27;;;23.38;;
37115;SDS011;23025;41.996;23.098;2023-04-15T10:03:01;24.17;;;23.33;;
37115;SDS011;23025;41.996;23.098;2023-04-15T10:05:28;37.53;;;36.20;;
37115;SDS011;23025;41.996;23.098;2023-04-15T10:07:55;35.15;;;33.90;;
37115;SDS011;23025;41.996;23.098;2023-04-15T10:10:22;30.98;;;29.88;;
37115;SDS011;23025;41.996;23.098;2023-04-15T10:13:03;29.42;;;28.40;;
37115;SDS011;23025;41.996;23.098;2023-04-15T10:15:30;33.35;;;32.15;;
37115;SDS011;23025;41.996;23.098;2023-04-15T10:17:57;40.55;;;39.03;;
37115;SDS011;23025;41.996;23.098;2023-04-15T10:20:27;37.95;;;36.58;;
37115;SDS011;23025;41.996;23.098;2023-04-15T10:22:54;37.38;;;36.05;;
37115;SDS011;23025;41.996;23.098;2023-04-15T10:25:20;36.05;;;34.78;;
37115;SDS011;23025;41.996;23.098;2023-04-15T10:27:47;41.05;;;39.63;;
37115;SDS011;23025;41.996;23.098;2023-04-15T10:30:16;39.17;;;37.80;;
37115;SDS011;23025;41.996;23.098;2023-04-15T10:32:43;33.75;;;31.98;;
37115;SDS011;23025;41.996;23.098;2023-04-15T10:35:10;36.50;;;35.22;;
37115;SDS011;23025;41.996;23.098;2023-04-15T10:37:38;27.35;;;26.38;;
37115;SDS011;23025;41.996;23.098;2023-04-15T10:40:22;41.13;;;39.70;;
37115;SDS011;23025;41.996;23.098;2023-04-15T10:42:49;36.10;;;34.88;;
37115;SDS011;23025;41.996;23.098;2023-04-15T10:45:16;39.75;;;38.40;;
37115;SDS011;23025;41.996;23.098;2023-04-15T10:47:43;32.63;;;31.42;;
37115;SDS011;23025;41.996;23.098;2023-04-15T10:50:10;32.10;;;30.98;;
37115;SDS011;23025;41.996;23.098;2023-04-15T10:52:39;28.95;;;27.92;;
37115;SDS011;23025;41.996;23.098;2023-04-15T10:55:11;33.35;;;32.17;;
37115;SDS011;23025;41.996;23.098;2023-04-15T10:57:38;28.52;;;27.50;;
37115;SDS011;23025;41.996;23.098;2023-04-15T11:00:09;26.92;;;25.75;;
37115;SDS011;23025;41.996;23.098;2023-04-15T11:02:40;37.30;;;35.97;;
37115;SDS011;23025;41.996;23.098;2023-04-15T11:05:07;30.30;;;29.20;;
37115;SDS011;23025;41.996;23.098;2023-04-15T11:13:02;27.40;;;26.45;;
37115;SDS011;23025;41.996;23.098;2023-04-15T11:15:31;28.17;;;27.15;;
37115;SDS011;23025;41.996;23.098;2023-04-15T11:17:58;28.45;;;27.42;;
37115;SDS011;23025;41.996;23.098;2023-04-15T11:20:25;40.90;;;39.55;;
37115;SDS011;23025;41.996;23.098;2023-04-15T11:22:53;39.33;;;37.88;;
37115;SDS011;23025;41.996;23.098;2023-04-15T11:25:23;43.00;;;41.55;;
37115;SDS011;23025;41.996;23.098;2023-04-15T11:27:50;30.70;;;29.63;;
37115;SDS011;23025;41.996;23.098;2023-04-15T11:30:19;34.53;;;33.20;;
37115;SDS011;23025;41.996;23.098;2023-04-15T11:32:46;55.72;;;53.80;;
37115;SDS011;23025;41.996;23.098;2023-04-15T11:35:13;25.00;;;24.10;;
37115;SDS011;23025;41.996;23.098;2023-04-15T11:37:39;30.80;;;29.73;;
37115;SDS011;23025;41.996;23.098;2023-04-15T11:40:06;30.42;;;29.38;;
37115;SDS011;23025;41.996;23.098;2023-04-15T11:42:33;42.33;;;40.88;;
37115;SDS011;23025;41.996;23.098;2023-04-15T11:45:05;26.30;;;25.38;;
37115;SDS011;23025;41.996;23.098;2023-04-15T11:47:33;29.05;;;28.02;;
37115;SDS011;23025;41.996;23.098;2023-04-15T11:50:12;28.33;;;27.30;;
37115;SDS011;23025;41.996;23.098;2023-04-15T11:52:39;26.02;;;25.05;;
37115;SDS011;23025;41.996;23.098;2023-04-15T11:55:06;23.58;;;22.73;;
37115;SDS011;23025;41.996;23.098;2023-04-15T11:57:33;25.15;;;24.25;;
37115;SDS011;23025;41.996;23.098;2023-04-15T12:00:00;32.40;;;31.20;;
37115;SDS011;23025;41.996;23.098;2023-04-15T12:02:29;24.50;;;23.63;;
37115;SDS011;23025;41.996;23.098;2023-04-15T12:05:03;29.35;;;28.33;;
37115;SDS011;23025;41.996;23.098;2023-04-15T12:07:29;29.00;;;27.98;;
37115;SDS011;23025;41.996;23.098;2023-04-15T12:09:56;26.10;;;25.20;;
37115;SDS011;23025;41.996;23.098;2023-04-15T12:12:25;28.80;;;27.77;;
37115;SDS011;23025;41.996;23.098;2023-04-15T12:14:52;24.23;;;23.38;;
37115;SDS011;23025;41.996;23.098;2023-04-15T12:17:18;26.92;;;26.00;;
37115;SDS011;23025;41.996;23.098;2023-04-15T12:19:45;23.42;;;22.60;;
37115;SDS011;23025;41.996;23.098;2023-04-15T12:22:15;21.05;;;20.27;;
37115;SDS011;23025;41.996;23.098;2023-04-15T12:24:44;24.20;;;23.35;;
37115;SDS011;23025;41.996;23.098;2023-04-15T12:27:13;23.90;;;23.08;;
37115;SDS011;23025;41.996;23.098;2023-04-15T12:29:40;21.35;;;20.58;;
37115;SDS011;23025;41.996;23.098;2023-04-15T12:32:07;25.33;;;24.40;;
37115;SDS011;23025;41.996;23.098;2023-04-15T12:34:35;25.48;;;24.58;;
37115;SDS011;23025;41.996;23.098;2023-04-15T12:37:03;23.45;;;22.63;;
37115;SDS011;23025;41.996;23.098;2023-04-15T12:39:33;25.27;;;24.35;;
37115;SDS011;23025;41.996;23.098;2023-04-15T12:42:00;27.75;;;26.83;;
37115;SDS011;23025;41.996;23.098;2023-04-15T12:44:26;28.38;;;27.35;;
37115;SDS011;23025;41.996;23.098;2023-04-15T12:46:53;33.70;;;32.53;;
37115;SDS011;23025;41.996;23.098;2023-04-15T12:49:20;32.10;;;30.98;;
37115;SDS011;23025;41.996;23.098;2023-04-15T12:51:48;23.20;;;22.38;;
37115;SDS011;23025;41.996;23.098;2023-04-15T12:54:15;23.48;;;22.65;;
37115;SDS011;23025;41.996;23.098;2023-04-15T12:56:43;24.25;;;23.40;;
37115;SDS011;23025;41.996;23.098;2023-04-15T12:59:10;22.50;;;21.67;;
37115;SDS011;23025;41.996;23.098;2023-04-15T13:01:37;22.23;;;21.42;;
37115;SDS011;23025;41.996;23.098;2023-04-15T13:04:03;21.75;;;20.95;;
37115;SDS011;23025;41.996;23.098;2023-04-15T13:06:30;27.77;;;26.80;;
37115;SDS011;23025;41.996;23.098;2023-04-15T13:08:57;19.95;;;19.23;;
37115;SDS011;23025;41.996;23.098;2023-04-15T13:11:24;25.00;;;24.10;;
37115;SDS011;23025;41.996;23.098;2023-04-15T13:13:52;31.58;;;30.48;;
37115;SDS011;23025;41.996;23.098;2023-04-15T13:16:20;20.70;;;20.00;;
37115;SDS011;23025;41.996;23.098;2023-04-15T13:18:47;19.77;;;19.05;;
37115;SDS011;23025;41.996;23.098;2023-04-15T13:21:13;26.33;;;25.40;;
37115;SDS011;23025;41.996;23.098;2023-04-15T13:23:40;22.13;;;21.33;;
37115;SDS011;23025;41.996;23.098;2023-04-15T13:26:06;21.15;;;20.42;;
37115;SDS011;23025;41.996;23.098;2023-04-15T13:28:33;31.45;;;30.35;;
37115;SDS011;23025;41.996;23.098;2023-04-15T13:31:01;38.90;;;37.58;;
37115;SDS011;23025;41.996;23.098;2023-04-15T13:33:28;25.92;;;25.00;;
37115;SDS011;23025;41.996;23.098;2023-04-15T13:35:55;29.15;;;28.10;;
37115;SDS011;23025;41.996;23.098;2023-04-15T13:38:21;27.88;;;26.88;;
37115;SDS011;23025;41.996;23.098;2023-04-15T13:40:48;22.98;;;22.15;;
37115;SDS011;23025;41.996;23.098;2023-04-15T13:43:15;23.23;;;22.40;;
37115;SDS011;23025;41.996;23.098;2023-04-15T13:45:41;26.80;;;25.85;;
37115;SDS011;23025;41.996;23.098;2023-04-15T13:48:09;23.13;;;22.30;;
37115;SDS011;23025;41.996;23.098;2023-04-15T13:50:36;22.48;;;21.65;;
37115;SDS011;23025;41.996;23.098;2023-04-15T13:53:02;32.25;;;31.13;;
37115;SDS011;23025;41.996;23.098;2023-04-15T13:55:29;28.08;;;27.08;;
37115;SDS011;23025;41.996;23.098;2023-04-15T13:57:55;21.50;;;20.70;;
37115;SDS011;23025;41.996;23.098;2023-04-15T14:00:22;24.55;;;23.20;;
37115;SDS011;23025;41.996;23.098;2023-04-15T14:02:48;24.98;;;24.08;;
37115;SDS011;23025;41.996;23.098;2023-04-15T14:05:16;20.63;;;19.90;;
37115;SDS011;23025;41.996;23.098;2023-04-15T14:07:43;20.92;;;20.17;;
37115;SDS011;23025;41.996;23.098;2023-04-15T14:10:09;21.85;;;21.02;;
37115;SDS011;23025;41.996;23.098;2023-04-15T14:12:36;28.10;;;27.10;;
37115;SDS011;23025;41.996;23.098;2023-04-15T14:15:03;28.10;;;27.10;;
37115;SDS011;23025;41.996;23.098;2023-04-15T14:17:30;29.90;;;28.85;;
37115;SDS011;23025;41.996;23.098;2023-04-15T14:19:58;26.65;;;25.73;;
37115;SDS011;23025;41.996;23.098;2023-04-15T14:22:26;39.13;;;37.78;;
37115;SDS011;23025;41.996;23.098;2023-04-15T14:24:52;30.88;;;29.80;;
37115;SDS011;23025;41.996;23.098;2023-04-15T14:27:19;24.95;;;24.05;;